Time;durP1;ratioP1;P1;durP2;ratioP2;P2;SDS_P1;SDS_P2;PMS_P1;PMS_P2;Temp;Humidity;BMP_temperature;BMP_pressure;BME280_temperature;BME280_humidity;BME280_pressure;Samples;Min_cycle;Max_cycle;Signal;HPM_P1;HPM_P2
2022/07/21 00:00:25;;;;;;;0.47;0.47;;;29.20;82.70;;;;;;4978954;28;20089;-56
2022/07/21 00:02:55;;;;;;;0.40;0.40;;;29.20;83.20;;;;;;4965696;28;20066;-57
2022/07/21 00:05:23;;;;;;;4.18;1.38;;;29.20;82.70;;;;;;5030154;28;20542;-53
2022/07/21 00:07:52;;;;;;;0.50;0.50;;;29.20;82.70;;;;;;4969010;28;20058;-54
2022/07/21 00:10:22;;;;;;;0.70;0.70;;;29.20;82.70;;;;;;4968802;28;20057;-55
2022/07/21 00:12:49;;;;;;;0.98;0.98;;;29.20;82.70;;;;;;4957909;28;20566;-52
2022/07/21 00:15:19;;;;;;;0.52;0.52;;;29.20;82.80;;;;;;4955430;28;20597;-52
2022/07/21 00:17:47;;;;;;;0.50;0.50;;;29.10;82.70;;;;;;5023859;28;20047;-51
2022/07/21 00:20:16;;;;;;;0.22;0.22;;;29.20;82.90;;;;;;4961984;28;20058;-55
2022/07/21 00:22:44;;;;;;;0.63;0.63;;;29.20;82.80;;;;;;4959067;28;20047;-54
2022/07/21 00:25:13;;;;;;;0.40;0.28;;;29.10;82.80;;;;;;4969213;28;20050;-55
2022/07/21 00:27:40;;;;;;;0.50;0.50;;;29.10;82.80;;;;;;5024554;28;20051;-54
2022/07/21 00:30:08;;;;;;;;;;;29.10;82.80;;;;;;4984307;28;20058;-56
2022/07/21 00:32:36;;;;;;;0.57;0.57;;;29.10;82.80;;;;;;4995916;28;19920;-56
2022/07/21 00:35:05;;;;;;;0.65;0.65;;;29.10;82.80;;;;;;4974227;28;20043;-54
2022/07/21 00:37:33;;;;;;;1.05;0.80;;;29.10;82.80;;;;;;4954178;28;20047;-57
2022/07/21 00:40:01;;;;;;;1.88;0.55;;;29.10;82.80;;;;;;4967661;28;20050;-55
2022/07/21 00:42:30;;;;;;;0.20;0.20;;;29.10;82.80;;;;;;5001659;28;20056;-56
2022/07/21 00:44:58;;;;;;;0.70;0.50;;;29.10;82.90;;;;;;4955856;28;20461;-53
2022/07/21 00:47:29;;;;;;;2.10;0.98;;;29.10;82.90;;;;;;5006684;28;20053;-55
2022/07/21 00:49:58;;;;;;;2.78;1.00;;;29.10;83.00;;;;;;4995327;28;20047;-56
2022/07/21 00:52:26;;;;;;;2.10;1.20;;;29.10;83.00;;;;;;4977209;28;20051;-53
2022/07/21 00:54:53;;;;;;;1.35;1.02;;;29.10;83.00;;;;;;4989479;28;20050;-55
2022/07/21 00:57:20;;;;;;;;;;;29.10;83.00;;;;;;4960735;28;20050;-53
2022/07/21 00:59:48;;;;;;;0.20;0.20;;;29.10;83.00;;;;;;4962447;28;19926;-57
2022/07/21 01:02:16;;;;;;;1.00;0.65;;;29.10;83.00;;;;;;4967249;28;20048;-51
2022/07/21 01:04:43;;;;;;;0.90;0.70;;;29.10;83.10;;;;;;4981266;28;20054;-52
2022/07/21 01:07:11;;;;;;;0.40;0.40;;;29.10;83.60;;;;;;4979956;28;20047;-57
2022/07/21 01:09:38;;;;;;;0.55;0.55;;;29.10;83.10;;;;;;4957718;28;20391;-54
2022/07/21 01:12:06;;;;;;;0.55;0.55;;;29.00;83.00;;;;;;4960136;28;20052;-55
2022/07/21 01:14:34;;;;;;;0.63;0.52;;;29.00;83.10;;;;;;4961069;28;20490;-55
2022/07/21 01:17:01;;;;;;;;;;;29.10;83.10;;;;;;5022432;28;20340;-52
2022/07/21 01:19:30;;;;;;;0.40;0.40;;;29.00;83.00;;;;;;4966577;28;19931;-53
2022/07/21 01:21:57;;;;;;;0.57;0.57;;;29.10;83.10;;;;;;4960850;28;20047;-55
2022/07/21 01:24:25;;;;;;;0.73;0.40;;;29.10;83.10;;;;;;4963438;28;20056;-55
2022/07/21 01:26:53;;;;;;;0.20;0.20;;;29.00;83.00;;;;;;4954334;28;20035;-54
2022/07/21 01:29:21;;;;;;;1.42;0.65;;;29.10;83.20;;;;;;4958868;28;20043;-55
2022/07/21 01:31:48;;;;;;;1.98;1.10;;;29.10;83.10;;;;;;4972911;28;20475;-57
2022/07/21 01:34:17;;;;;;;0.38;0.38;;;29.10;83.10;;;;;;5046083;28;20048;-54
2022/07/21 01:36:45;;;;;;;0.75;0.75;;;29.00;83.10;;;;;;4967788;28;20506;-59
2022/07/21 01:42:00;;;;;;;0.40;0.40;;;29.00;83.10;;;;;;4967254;28;20062;-56
2022/07/21 01:44:27;;;;;;;0.30;0.30;;;29.00;83.10;;;;;;4961397;28;20050;-53
2022/07/21 01:46:55;;;;;;;;;;;29.00;83.20;;;;;;4960158;28;20558;-55
2022/07/21 01:49:22;;;;;;;1.05;0.63;;;29.00;83.20;;;;;;4982835;28;19927;-50
2022/07/21 01:51:50;;;;;;;3.13;1.58;;;29.00;83.20;;;;;;4989037;28;20054;-53
2022/07/21 01:54:18;;;;;;;0.50;0.50;;;29.00;83.20;;;;;;4966318;28;20514;-55
2022/07/21 01:56:51;;;;;;;0.68;0.68;;;29.00;83.20;;;;;;5023437;28;20082;-58
2022/07/21 01:59:19;;;;;;;0.50;0.50;;;29.00;83.20;;;;;;5017678;28;20062;-55
2022/07/21 02:01:46;;;;;;;0.75;0.75;;;29.00;83.20;;;;;;5005073;28;20247;-56
2022/07/21 02:04:14;;;;;;;1.13;0.57;;;29.00;83.20;;;;;;4980181;28;20051;-56
2022/07/21 02:06:42;;;;;;;0.40;0.40;;;29.00;83.20;;;;;;4962584;28;20089;-56
2022/07/21 02:09:10;;;;;;;1.45;0.80;;;29.00;83.20;;;;;;4958858;28;20043;-52
2022/07/21 02:11:37;;;;;;;;;;;29.00;83.20;;;;;;4969158;28;20047;-56
2022/07/21 02:14:05;;;;;;;0.35;0.35;;;29.00;83.30;;;;;;4958945;28;19926;-56
2022/07/21 02:16:33;;;;;;;0.50;0.50;;;29.00;83.30;;;;;;4961841;28;20054;-59
2022/07/21 02:19:00;;;;;;;0.98;0.77;;;29.00;83.30;;;;;;4964022;28;20473;-54
2022/07/21 02:21:28;;;;;;;0.47;0.47;;;29.00;83.30;;;;;;4963588;28;20407;-57
2022/07/21 02:23:55;;;;;;;1.35;1.15;;;29.00;83.30;;;;;;4964649;28;20604;-55
2022/07/21 02:26:23;;;;;;;0.30;0.30;;;29.00;83.30;;;;;;5010743;28;20061;-53
2022/07/21 02:28:50;;;;;;;1.02;0.90;;;29.00;83.30;;;;;;4997794;28;20539;-56
2022/07/21 02:31:18;;;;;;;0.50;0.50;;;29.00;83.30;;;;;;5015692;28;20419;-57
2022/07/21 02:33:45;;;;;;;0.88;0.82;;;29.00;83.30;;;;;;4960986;28;20047;-57
2022/07/21 02:36:13;;;;;;;;;;;29.00;83.20;;;;;;4972213;28;20043;-56
2022/07/21 02:38:40;;;;;;;;;;;29.00;83.20;;;;;;4985604;28;19926;-55
2022/07/21 02:41:07;;;;;;;1.60;0.82;;;29.00;83.20;;;;;;4963530;28;20281;-58
2022/07/21 02:43:34;;;;;;;0.55;0.55;;;29.00;83.20;;;;;;4978805;28;20044;-57
2022/07/21 02:46:01;;;;;;;;;;;29.00;83.30;;;;;;4958463;28;20047;-56
2022/07/21 02:48:29;;;;;;;;;;;29.00;83.30;;;;;;4986576;28;19926;-57
2022/07/21 02:50:56;;;;;;;0.50;0.50;;;29.00;83.30;;;;;;4976551;28;19933;-53
2022/07/21 02:53:23;;;;;;;2.08;1.48;;;29.00;83.30;;;;;;4968094;28;20074;-55
2022/07/21 02:55:52;;;;;;;0.20;0.20;;;29.00;83.20;;;;;;4989237;28;20507;-55
2022/07/21 02:58:27;;;;;;;0.47;0.47;;;29.00;83.30;;;;;;4982057;28;20050;-54
2022/07/21 03:01:01;;;;;;;0.40;0.40;;;29.00;83.20;;;;;;4961391;28;20517;-57
2022/07/21 03:03:34;;;;;;;0.20;0.20;;;29.00;83.30;;;;;;5018040;28;20040;-53
2022/07/21 03:06:03;;;;;;;0.45;0.45;;;29.00;83.30;;;;;;4960030;28;20501;-55
2022/07/21 03:08:31;;;;;;;0.32;0.32;;;29.00;83.30;;;;;;4973495;28;20052;-55
2022/07/21 03:10:58;;;;;;;3.05;1.08;;;29.00;83.30;;;;;;4979595;28;20070;-55
2022/07/21 03:13:26;;;;;;;0.93;0.60;;;29.00;83.30;;;;;;4958613;28;20058;-56
2022/07/21 03:15:53;;;;;;;0.73;0.73;;;29.00;83.30;;;;;;4962864;28;20043;-54
2022/07/21 03:18:20;;;;;;;0.50;0.50;;;29.00;83.30;;;;;;4975799;28;20058;-58
2022/07/21 03:20:48;;;;;;;0.70;0.70;;;29.00;83.40;;;;;;4993243;28;20501;-59
2022/07/21 03:23:15;;;;;;;1.98;1.13;;;28.90;83.30;;;;;;4985203;28;20411;-55
2022/07/21 03:25:42;;;;;;;0.95;0.73;;;28.90;83.30;;;;;;4983413;28;20062;-54
2022/07/21 03:28:10;;;;;;;1.30;0.65;;;28.90;83.30;;;;;;4974035;28;20043;-57
2022/07/21 03:30:37;;;;;;;1.13;0.68;;;28.90;83.30;;;;;;4983662;28;20367;-56
2022/07/21 03:33:06;;;;;;;0.63;0.45;;;28.90;83.30;;;;;;4976919;28;20561;-56
2022/07/21 03:35:35;;;;;;;2.17;0.82;;;28.90;83.30;;;;;;4997141;28;20039;-56
2022/07/21 03:38:03;;;;;;;1.20;0.73;;;28.90;83.30;;;;;;5026142;28;20061;-54
2022/07/21 03:40:33;;;;;;;1.65;0.52;;;28.90;83.40;;;;;;4996558;28;20058;-56
2022/07/21 03:43:03;;;;;;;0.45;0.45;;;28.90;83.40;;;;;;5029423;28;20043;-55
2022/07/21 03:45:31;;;;;;;1.23;0.95;;;28.90;83.40;;;;;;4962941;28;20070;-53
2022/07/21 03:48:00;;;;;;;0.52;0.52;;;28.90;83.50;;;;;;4959329;28;20051;-53
2022/07/21 03:50:29;;;;;;;0.75;0.75;;;28.90;83.40;;;;;;4985805;28;20045;-59
2022/07/21 03:52:57;;;;;;;0.30;0.30;;;28.90;83.50;;;;;;4958125;28;20051;-55
2022/07/21 03:55:25;;;;;;;0.73;0.52;;;28.90;83.40;;;;;;4992015;28;20149;-55
2022/07/21 03:57:56;;;;;;;;;;;28.90;83.50;;;;;;4988586;28;20058;-55
2022/07/21 04:00:28;;;;;;;0.20;0.20;;;28.90;83.50;;;;;;4959113;28;19937;-54
2022/07/21 04:02:57;;;;;;;0.65;0.65;;;28.90;83.50;;;;;;4961709;28;20161;-52
2022/07/21 04:05:25;;;;;;;0.38;0.38;;;28.90;83.50;;;;;;4984637;28;20047;-53
2022/07/21 04:07:53;;;;;;;1.30;0.70;;;28.90;83.50;;;;;;4976068;28;20055;-51
2022/07/21 04:10:27;;;;;;;0.65;0.63;;;28.90;83.60;;;;;;5017263;28;20046;-51
2022/07/21 04:12:56;;;;;;;0.30;0.30;;;28.90;83.50;;;;;;4974084;28;20422;-54
2022/07/21 04:15:23;;;;;;;0.75;0.57;;;28.90;83.50;;;;;;5028285;28;20054;-53
2022/07/21 04:17:52;;;;;;;1.25;0.65;;;28.90;83.50;;;;;;4975711;28;20524;-52
2022/07/21 04:20:20;;;;;;;4.53;1.05;;;28.90;83.50;;;;;;4961843;28;20051;-55
2022/07/21 04:22:49;;;;;;;0.45;0.45;;;28.90;83.50;;;;;;4982109;28;20408;-58
2022/07/21 04:25:18;;;;;;;0.82;0.60;;;28.90;83.50;;;;;;5017252;28;20055;-55
2022/07/21 04:27:46;;;;;;;1.70;1.05;;;28.90;83.50;;;;;;4963819;28;20493;-58
2022/07/21 04:30:15;;;;;;;1.95;1.20;;;28.80;83.50;;;;;;4963219;28;20054;-57
2022/07/21 04:32:43;;;;;;;0.95;0.77;;;28.80;83.50;;;;;;4951404;28;21644;-57
2022/07/21 04:35:12;;;;;;;0.40;0.40;;;28.90;83.50;;;;;;4985453;28;20042;-56
2022/07/21 04:37:39;;;;;;;3.60;0.77;;;28.80;83.50;;;;;;5028696;28;20046;-55
2022/07/21 04:40:09;;;;;;;1.38;0.85;;;28.90;83.40;;;;;;5003060;28;20051;-56
2022/07/21 04:42:37;;;;;;;0.63;0.32;;;28.90;84.00;;;;;;5024283;28;20061;-57
2022/07/21 04:45:05;;;;;;;;;;;28.80;83.40;;;;;;4984370;28;20408;-54
2022/07/21 04:47:32;;;;;;;1.08;0.73;;;28.80;83.50;;;;;;4956589;28;19937;-59
2022/07/21 04:50:00;;;;;;;0.60;0.60;;;28.80;83.40;;;;;;4998145;28;20058;-59
2022/07/21 04:52:27;;;;;;;1.70;0.73;;;28.80;83.50;;;;;;4999943;28;20077;-55
2022/07/21 04:54:54;;;;;;;0.40;0.40;;;28.90;83.50;;;;;;4964611;28;20047;-52
2022/07/21 04:57:22;;;;;;;2.72;1.17;;;28.80;83.30;;;;;;4971892;28;20062;-53
2022/07/21 04:59:49;;;;;;;0.30;0.30;;;28.90;83.40;;;;;;5025810;28;20043;-56
2022/07/21 05:02:16;;;;;;;1.98;0.68;;;28.90;83.50;;;;;;4969435;28;20065;-54
2022/07/21 05:04:43;;;;;;;0.65;0.65;;;28.90;83.40;;;;;;4989920;28;20047;-56
2022/07/21 05:07:11;;;;;;;;;;;28.90;83.40;;;;;;5034364;28;20047;-56
2022/07/21 05:09:38;;;;;;;0.90;0.75;;;28.90;83.40;;;;;;4994318;28;19924;-58
2022/07/21 05:12:05;;;;;;;0.30;0.30;;;28.90;83.40;;;;;;5004195;28;20036;-55
2022/07/21 05:14:33;;;;;;;2.55;1.45;;;28.80;83.40;;;;;;4980168;28;20058;-58
2022/07/21 05:17:00;;;;;;;;;;;28.80;83.40;;;;;;4966630;28;20053;-58
2022/07/21 05:19:27;;;;;;;0.30;0.30;;;28.80;83.50;;;;;;5004549;28;19940;-57
2022/07/21 05:21:55;;;;;;;0.20;0.20;;;28.80;83.50;;;;;;4995904;28;20062;-58
2022/07/21 05:24:22;;;;;;;0.65;0.65;;;28.80;83.50;;;;;;4957968;28;20055;-57
2022/07/21 05:26:50;;;;;;;0.20;0.20;;;28.80;83.50;;;;;;4960286;28;20046;-58
2022/07/21 05:29:17;;;;;;;0.40;0.40;;;28.80;83.60;;;;;;5010617;28;20050;-51
2022/07/21 05:31:44;;;;;;;0.57;0.57;;;28.80;83.60;;;;;;4971040;28;20130;-56
2022/07/21 05:34:12;;;;;;;1.95;1.13;;;28.80;83.60;;;;;;5004123;28;20040;-56
2022/07/21 05:36:39;;;;;;;2.50;1.13;;;28.80;83.70;;;;;;4963732;28;20047;-58
2022/07/21 05:39:06;;;;;;;0.60;0.60;;;28.80;83.60;;;;;;4962148;28;20061;-59
2022/07/21 05:41:34;;;;;;;1.27;0.63;;;28.80;83.60;;;;;;4964489;28;20062;-52
2022/07/21 05:44:01;;;;;;;0.25;0.25;;;28.80;83.60;;;;;;5001028;28;20059;-56
2022/07/21 05:46:28;;;;;;;1.17;0.57;;;28.70;83.50;;;;;;4964448;28;20050;-57
2022/07/21 05:48:56;;;;;;;0.63;0.40;;;28.80;83.60;;;;;;4966641;28;20081;-57
2022/07/21 05:51:23;;;;;;;1.67;1.15;;;28.70;83.60;;;;;;5001592;28;20059;-59
2022/07/21 05:53:50;;;;;;;1.27;0.57;;;28.80;83.60;;;;;;4965604;28;20047;-56
2022/07/21 05:56:18;;;;;;;0.20;0.20;;;28.80;83.60;;;;;;4969573;28;20043;-58
2022/07/21 05:58:45;;;;;;;;;;;28.80;83.60;;;;;;5005478;28;20391;-52
2022/07/21 06:01:12;;;;;;;;;;;28.80;83.60;;;;;;5002872;28;20428;-54
2022/07/21 06:03:45;;;;;;;1.17;0.75;;;28.80;83.70;;;;;;5004505;28;19922;-53
2022/07/21 06:06:15;;;;;;;1.00;0.77;;;28.80;83.60;;;;;;4990374;28;20055;-57
2022/07/21 06:08:44;;;;;;;0.68;0.68;;;28.70;83.60;;;;;;5014349;28;20054;-55
2022/07/21 06:11:14;;;;;;;0.20;0.20;;;28.80;84.30;;;;;;5004324;28;20051;-57
2022/07/21 06:13:42;;;;;;;0.75;0.35;;;28.80;83.70;;;;;;4968252;28;20035;-56
2022/07/21 06:16:10;;;;;;;0.30;0.30;;;28.80;83.70;;;;;;4954092;28;20047;-53
2022/07/21 06:18:37;;;;;;;;;;;28.70;83.60;;;;;;4985196;28;20044;-57
2022/07/21 06:21:05;;;;;;;0.50;0.50;;;28.70;83.70;;;;;;4988274;28;19932;-59
2022/07/21 06:23:32;;;;;;;0.45;0.45;;;28.70;83.70;;;;;;5020420;28;20058;-57
2022/07/21 06:25:59;;;;;;;;;;;28.70;83.80;;;;;;5032118;28;20057;-53
2022/07/21 06:28:27;;;;;;;1.23;0.73;;;28.70;83.80;;;;;;5051627;28;19929;-58
2022/07/21 06:30:54;;;;;;;0.63;0.55;;;28.70;83.80;;;;;;4970888;28;20537;-56
2022/07/21 06:33:22;;;;;;;0.93;0.52;;;28.70;83.80;;;;;;4997976;28;20051;-56
2022/07/21 06:35:50;;;;;;;0.35;0.35;;;28.70;83.90;;;;;;4995787;28;20034;-54
2022/07/21 06:38:17;;;;;;;0.80;0.70;;;28.70;83.80;;;;;;4974161;28;20109;-57
2022/07/21 06:40:44;;;;;;;0.50;0.50;;;28.70;83.80;;;;;;4974130;28;20400;-56
2022/07/21 06:43:12;;;;;;;0.20;0.20;;;28.70;83.70;;;;;;4979569;28;20438;-57
2022/07/21 06:45:56;;;;;;;1.15;0.73;;;28.70;83.70;;;;;;5008047;28;20047;-58
2022/07/21 06:48:24;;;;;;;0.50;0.50;;;28.70;83.70;;;;;;4994118;28;20759;-55
2022/07/21 06:50:53;;;;;;;1.77;1.00;;;28.70;83.80;;;;;;5014718;28;20043;-52
2022/07/21 06:53:21;;;;;;;2.63;0.77;;;28.70;83.80;;;;;;4971217;28;20506;-53
2022/07/21 06:55:52;;;;;;;0.80;0.80;;;28.70;83.90;;;;;;4994420;28;20049;-52
2022/07/21 06:58:29;;;;;;;0.20;0.20;;;28.70;83.90;;;;;;4999225;28;20053;-53
2022/07/21 07:01:04;;;;;;;0.60;0.60;;;28.80;83.90;;;;;;4966928;28;20047;-55
2022/07/21 07:03:33;;;;;;;0.55;0.55;;;28.70;84.00;;;;;;5016284;28;20040;-54
2022/07/21 07:06:03;;;;;;;1.20;0.57;;;28.70;84.00;;;;;;4985992;28;20051;-55
2022/07/21 07:08:30;;;;;;;0.73;0.70;;;28.70;84.10;;;;;;4974910;28;20400;-56
2022/07/21 07:10:58;;;;;;;0.60;0.60;;;28.70;84.10;;;;;;4982840;28;20057;-54
2022/07/21 07:13:25;;;;;;;0.50;0.50;;;28.70;84.10;;;;;;4987783;28;20043;-52
2022/07/21 07:16:13;;;;;;;0.98;0.50;;;28.70;84.10;;;;;;4970262;28;20413;-54
2022/07/21 07:18:40;;;;;;;0.63;0.63;;;28.70;84.10;;;;;;4995181;28;20054;-54
2022/07/21 07:21:08;;;;;;;2.25;0.65;;;28.70;84.20;;;;;;4994889;28;20044;-59
2022/07/21 07:23:39;;;;;;;0.85;0.60;;;28.70;84.20;;;;;;5035461;28;20040;-55
2022/07/21 07:26:07;;;;;;;0.43;0.43;;;28.70;84.20;;;;;;4955793;28;20375;-55
2022/07/21 07:28:35;;;;;;;0.63;0.63;;;28.70;84.20;;;;;;4980208;28;20519;-52
2022/07/21 07:31:02;;;;;;;;;;;28.70;84.20;;;;;;4962758;28;20043;-57
2022/07/21 07:33:29;;;;;;;0.30;0.30;;;28.70;84.30;;;;;;4963998;28;19933;-58
2022/07/21 07:35:57;;;;;;;1.08;0.60;;;28.70;84.20;;;;;;4993953;28;20054;-56
2022/07/21 07:38:24;;;;;;;1.05;1.02;;;28.70;84.20;;;;;;5047488;28;20051;-58
2022/07/21 07:40:52;;;;;;;;;;;28.70;84.20;;;;;;4985532;28;20455;-55
2022/07/21 07:43:20;;;;;;;;;;;28.70;84.30;;;;;;4965323;28;19927;-51
2022/07/21 07:45:47;;;;;;;0.80;0.80;;;28.70;84.30;;;;;;4968189;28;20332;-51
2022/07/21 07:48:15;;;;;;;0.90;0.70;;;28.70;84.20;;;;;;4995471;28;20046;-57
2022/07/21 07:50:42;;;;;;;;;;;28.70;84.30;;;;;;4961497;28;20047;-55
2022/07/21 07:53:09;;;;;;;;;;;28.70;84.30;;;;;;4977273;28;20400;-53
2022/07/21 07:55:37;;;;;;;1.75;0.95;;;28.70;84.20;;;;;;5011931;28;19928;-56
2022/07/21 07:58:04;;;;;;;0.20;0.20;;;28.70;84.20;;;;;;4953725;28;20070;-57
2022/07/21 08:00:31;;;;;;;0.40;0.40;;;28.60;84.20;;;;;;5010611;28;20041;-53
2022/07/21 08:03:19;;;;;;;2.08;0.50;;;28.70;84.90;;;;;;4967651;28;20410;-56
2022/07/21 08:05:47;;;;;;;0.20;0.20;;;28.70;84.30;;;;;;5048110;28;20044;-59
2022/07/21 08:08:16;;;;;;;0.52;0.52;;;28.70;84.30;;;;;;4966308;28;20051;-57
2022/07/21 08:10:45;;;;;;;0.30;0.30;;;28.70;84.30;;;;;;4953831;28;20039;-55
2022/07/21 08:13:15;;;;;;;0.22;0.22;;;28.70;84.30;;;;;;4958193;28;20043;-52
2022/07/21 08:15:44;;;;;;;0.63;0.40;;;28.70;84.20;;;;;;4958131;28;20514;-53
2022/07/21 08:18:13;;;;;;;0.20;0.20;;;28.80;84.20;;;;;;4980448;28;20057;-55
2022/07/21 08:20:41;;;;;;;0.22;0.22;;;28.80;84.10;;;;;;4967034;28;20046;-54
2022/07/21 08:23:08;;;;;;;0.52;0.52;;;28.80;84.10;;;;;;4989532;28;20055;-51
2022/07/21 08:25:39;;;;;;;0.63;0.63;;;28.80;84.10;;;;;;4976769;28;20044;-54
2022/07/21 08:28:06;;;;;;;0.85;0.77;;;28.80;84.10;;;;;;5015259;28;20044;-57
2022/07/21 08:30:34;;;;;;;;;;;28.80;84.10;;;;;;4975319;28;20025;-53
2022/07/21 08:33:02;;;;;;;0.45;0.45;;;28.80;84.10;;;;;;5008605;28;19933;-57
2022/07/21 08:35:30;;;;;;;0.70;0.70;;;28.80;84.20;;;;;;5039565;28;20049;-56
2022/07/21 08:38:01;;;;;;;1.17;0.75;;;28.80;84.30;;;;;;5008466;28;20139;-54
2022/07/21 08:40:30;;;;;;;3.65;1.98;;;28.80;84.20;;;;;;4979244;28;20430;-56
2022/07/21 08:42:59;;;;;;;1.20;0.47;;;28.80;84.20;;;;;;4997344;28;20059;-57
2022/07/21 08:45:30;;;;;;;0.20;0.20;;;28.80;84.20;;;;;;4987824;28;20047;-57
2022/07/21 08:47:59;;;;;;;0.35;0.35;;;28.80;84.20;;;;;;4965557;28;20062;-58
2022/07/21 08:50:30;;;;;;;0.30;0.30;;;28.80;84.30;;;;;;4991077;28;20074;-53
2022/07/21 08:52:58;;;;;;;0.73;0.73;;;28.80;84.20;;;;;;5023218;28;20054;-61
2022/07/21 08:55:32;;;;;;;0.20;0.20;;;28.80;84.20;;;;;;4962670;28;20545;-58
2022/07/21 08:58:00;;;;;;;0.47;0.47;;;28.80;84.30;;;;;;4963557;28;20047;-55
2022/07/21 09:00:34;;;;;;;2.55;0.50;;;28.80;84.40;;;;;;5022811;28;20050;-55
2022/07/21 09:03:09;;;;;;;0.57;0.35;;;28.80;84.40;;;;;;4955839;28;20047;-57
2022/07/21 09:05:37;;;;;;;0.40;0.40;;;28.70;84.40;;;;;;5025712;28;20037;-54
2022/07/21 09:08:04;;;;;;;;;;;28.80;84.50;;;;;;4994907;28;20286;-54
2022/07/21 09:10:32;;;;;;;1.60;1.10;;;28.80;84.50;;;;;;4998059;28;19920;-56
2022/07/21 09:13:03;;;;;;;0.45;0.45;;;28.70;84.40;;;;;;4966017;28;20051;-55
2022/07/21 09:15:32;;;;;;;0.30;0.30;;;28.70;84.40;;;;;;4981542;28;20047;-54
2022/07/21 09:18:17;;;;;;;1.75;0.68;;;28.70;84.40;;;;;;4968436;28;20042;-57
2022/07/21 09:20:53;;;;;;;0.55;0.43;;;28.70;84.40;;;;;;4980795;28;20048;-56
2022/07/21 09:23:22;;;;;;;0.30;0.30;;;28.80;84.50;;;;;;4973128;28;20051;-53
2022/07/21 09:25:52;;;;;;;0.43;0.43;;;28.80;84.40;;;;;;4975877;28;20501;-58
2022/07/21 09:28:29;;;;;;;0.47;0.47;;;28.80;84.30;;;;;;4992284;28;20043;-55
2022/07/21 09:31:06;;;;;;;0.77;0.77;;;28.80;84.30;;;;;;5022077;28;20039;-57
2022/07/21 09:33:45;;;;;;;0.30;0.30;;;28.80;84.30;;;;;;4984372;28;20043;-54
2022/07/21 09:36:20;;;;;;;0.98;0.85;;;28.80;84.40;;;;;;5028244;28;20055;-56
2022/07/21 09:38:47;;;;;;;0.50;0.50;;;28.80;84.40;;;;;;5031460;28;20474;-55
2022/07/21 09:41:22;;;;;;;0.20;0.20;;;28.80;84.40;;;;;;4966305;28;20077;-57
2022/07/21 09:43:57;;;;;;;0.63;0.63;;;28.80;84.50;;;;;;4970767;28;20042;-52
2022/07/21 09:46:30;;;;;;;0.70;0.57;;;28.80;84.50;;;;;;5007222;28;20120;-54
2022/07/21 09:49:01;;;;;;;0.30;0.30;;;28.80;84.50;;;;;;5006415;28;20042;-54
2022/07/21 09:51:49;;;;;;;0.35;0.30;;;28.80;84.50;;;;;;4964268;28;20043;-58
2022/07/21 09:54:16;;;;;;;0.32;0.32;;;28.80;84.40;;;;;;4971551;28;20035;-55
2022/07/21 09:56:47;;;;;;;1.35;0.60;;;28.80;84.40;;;;;;4981029;28;20058;-55
2022/07/21 09:59:15;;;;;;;0.55;0.55;;;28.80;84.40;;;;;;5040023;28;20062;-56
2022/07/21 10:01:42;;;;;;;0.50;0.50;;;28.80;84.40;;;;;;4957611;28;20043;-59
2022/07/21 10:04:13;;;;;;;1.23;0.68;;;28.80;84.40;;;;;;4997839;28;20059;-55
2022/07/21 10:06:41;;;;;;;0.60;0.57;;;28.80;84.30;;;;;;4990268;28;20032;-53
2022/07/21 10:09:09;;;;;;;0.20;0.20;;;28.80;84.30;;;;;;4978765;28;20047;-57
2022/07/21 10:11:41;;;;;;;0.55;0.43;;;28.80;84.40;;;;;;4963463;28;20055;-56
2022/07/21 10:14:13;;;;;;;0.30;0.30;;;28.80;84.50;;;;;;4998953;28;20036;-55
2022/07/21 10:16:40;;;;;;;1.17;0.60;;;28.80;84.40;;;;;;5007540;28;20043;-54
2022/07/21 10:19:32;;;;;;;0.77;0.50;;;28.80;84.40;;;;;;4960350;28;20498;-59
2022/07/21 10:22:08;;;;;;;0.35;0.35;;;28.80;84.40;;;;;;5025038;28;20047;-54
2022/07/21 10:24:37;;;;;;;0.50;0.50;;;28.80;84.50;;;;;;4955310;28;20053;-56
2022/07/21 10:27:10;;;;;;;0.63;0.47;;;28.80;84.40;;;;;;5032352;28;20058;-55
2022/07/21 10:29:59;;;;;;;0.50;0.50;;;28.80;84.50;;;;;;5046193;28;20514;-57
2022/07/21 10:32:38;;;;;;;0.47;0.47;;;28.80;84.40;;;;;;4999926;28;20049;-57
2022/07/21 10:35:30;;;;;;;0.47;0.40;;;28.80;84.40;;;;;;4963916;28;20047;-54
2022/07/21 10:38:02;;;;;;;1.88;0.50;;;28.80;84.30;;;;;;5011605;28;20058;-55
2022/07/21 10:40:29;;;;;;;0.43;0.43;;;28.80;84.40;;;;;;4961087;28;20066;-52
2022/07/21 10:42:59;;;;;;;1.55;0.60;;;28.80;84.40;;;;;;4975873;28;20050;-56
2022/07/21 10:45:36;;;;;;;0.93;0.65;;;28.80;84.40;;;;;;4987084;28;20055;-59
2022/07/21 10:48:05;;;;;;;1.77;1.15;;;28.80;84.40;;;;;;4987074;28;20529;-58
2022/07/21 10:50:41;;;;;;;0.50;0.50;;;28.80;84.40;;;;;;4984516;28;20046;-56
2022/07/21 10:53:12;;;;;;;0.45;0.45;;;28.80;84.50;;;;;;4977847;28;20511;-54
2022/07/21 10:55:47;;;;;;;0.40;0.40;;;28.80;84.50;;;;;;4974911;28;20048;-52
2022/07/21 10:58:26;;;;;;;0.20;0.20;;;28.80;84.50;;;;;;4962851;28;20046;-57
2022/07/21 11:01:24;;;;;;;1.75;0.82;;;28.80;84.50;;;;;;4961749;28;20050;-54
2022/07/21 11:04:13;;;;;;;0.32;0.32;;;28.90;84.50;;;;;;4978554;28;20055;-56
2022/07/21 11:06:41;;;;;;;1.35;0.57;;;28.80;84.50;;;;;;4983672;28;20047;-55
2022/07/21 11:09:16;;;;;;;1.08;0.43;;;28.80;84.50;;;;;;4975160;28;20054;-57
2022/07/21 11:11:46;;;;;;;0.50;0.50;;;28.80;84.50;;;;;;4978073;28;20420;-51
2022/07/21 11:14:17;;;;;;;0.30;0.30;;;28.80;84.50;;;;;;4966461;28;20034;-55
2022/07/21 11:16:46;;;;;;;0.50;0.50;;;28.80;84.50;;;;;;4974553;28;20047;-55
2022/07/21 11:19:45;;;;;;;1.38;0.82;;;28.80;84.50;;;;;;4963801;28;20054;-50
2022/07/21 11:22:20;;;;;;;0.32;0.32;;;28.80;84.50;;;;;;4966868;28;20406;-53
2022/07/21 11:24:56;;;;;;;0.30;0.30;;;28.80;85.10;;;;;;5031002;28;20069;-55
2022/07/21 11:27:32;;;;;;;1.17;0.40;;;28.80;84.50;;;;;;4978196;28;20040;-52
2022/07/21 11:30:07;;;;;;;0.35;0.35;;;28.80;84.50;;;;;;4965774;28;20059;-57
2022/07/21 11:32:35;;;;;;;0.22;0.22;;;28.80;84.80;;;;;;5051880;28;20067;-55
2022/07/21 11:35:04;;;;;;;;;;;28.80;84.50;;;;;;4981167;28;20050;-57
2022/07/21 11:37:43;;;;;;;0.95;0.52;;;28.80;84.50;;;;;;5042747;28;19928;-56
2022/07/21 11:40:15;;;;;;;0.25;0.25;;;28.70;84.40;;;;;;5003062;28;20537;-56
2022/07/21 11:42:44;;;;;;;1.38;0.88;;;28.80;84.50;;;;;;4960589;28;20061;-54
2022/07/21 11:45:14;;;;;;;0.65;0.65;;;28.80;84.60;;;;;;4986368;28;20057;-56
2022/07/21 11:47:41;;;;;;;2.75;1.20;;;28.80;84.60;;;;;;5030525;28;20458;-57
2022/07/21 11:50:17;;;;;;;1.58;0.75;;;28.80;84.50;;;;;;4959497;28;20055;-55
2022/07/21 11:52:45;;;;;;;;;;;28.80;84.50;;;;;;4951955;28;20055;-56
2022/07/21 11:55:12;;;;;;;0.52;0.40;;;28.80;84.50;;;;;;4981267;28;19956;-54
2022/07/21 11:57:46;;;;;;;0.28;0.28;;;28.80;84.50;;;;;;4972090;28;20051;-54
2022/07/21 12:00:15;;;;;;;1.65;0.60;;;28.80;84.50;;;;;;4976905;28;20422;-50
2022/07/21 12:02:48;;;;;;;0.20;0.20;;;28.80;84.50;;;;;;4955881;28;20065;-55
2022/07/21 12:05:16;;;;;;;0.28;0.28;;;28.80;84.50;;;;;;5002819;28;20395;-54
2022/07/21 12:07:48;;;;;;;0.40;0.40;;;28.80;84.50;;;;;;4992110;28;20411;-56
2022/07/21 12:10:26;;;;;;;0.60;0.60;;;28.80;84.50;;;;;;5003670;28;20058;-57
2022/07/21 12:13:05;;;;;;;0.40;0.40;;;28.80;84.50;;;;;;4962632;28;20051;-56
2022/07/21 12:15:35;;;;;;;0.22;0.22;;;28.80;84.50;;;;;;4980325;28;20048;-52
2022/07/21 12:18:05;;;;;;;0.32;0.32;;;28.80;84.40;;;;;;4977672;28;21097;-57
2022/07/21 12:20:36;;;;;;;0.30;0.30;;;28.80;84.50;;;;;;4976257;28;20057;-58
2022/07/21 12:23:27;;;;;;;0.20;0.20;;;28.80;84.40;;;;;;5000976;28;20140;-56
2022/07/21 12:25:58;;;;;;;0.25;0.25;;;28.90;84.50;;;;;;4959921;28;20038;-54
2022/07/21 12:28:47;;;;;;;0.60;0.50;;;28.90;84.40;;;;;;4955662;28;20498;-54
2022/07/21 12:31:23;;;;;;;0.52;0.52;;;28.90;84.40;;;;;;5024967;28;20054;-53
2022/07/21 12:33:55;;;;;;;0.43;0.43;;;28.90;84.40;;;;;;5007912;28;20059;-58
2022/07/21 12:36:44;;;;;;;0.25;0.25;;;28.90;84.30;;;;;;5043261;28;20048;-55
2022/07/21 12:42:07;;;;;;;0.30;0.30;;;28.90;84.40;;;;;;4981609;28;20065;-54
2022/07/21 12:44:35;;;;;;;0.43;0.43;;;28.90;84.40;;;;;;4961778;28;20093;-58
2022/07/21 12:47:16;;;;;;;0.40;0.40;;;28.90;84.40;;;;;;4961267;28;20055;-55
2022/07/21 12:50:03;;;;;;;0.30;0.30;;;28.90;84.40;;;;;;4988984;28;20045;-52
2022/07/21 12:52:48;;;;;;;1.58;0.63;;;28.90;84.40;;;;;;4965983;28;20039;-51
2022/07/21 12:55:16;;;;;;;1.08;0.98;;;28.90;84.40;;;;;;4978814;28;20039;-50
2022/07/21 12:57:43;;;;;;;0.57;0.57;;;28.80;84.40;;;;;;5002987;28;20043;-57
2022/07/21 13:00:10;;;;;;;;;;;28.80;84.40;;;;;;5002446;28;20045;-53
2022/07/21 13:02:51;;;;;;;0.85;0.65;;;28.80;84.40;;;;;;4960517;28;19930;-55
2022/07/21 13:05:19;;;;;;;0.40;0.40;;;28.90;84.40;;;;;;5003998;28;20043;-52
2022/07/21 13:07:47;;;;;;;0.40;0.40;;;28.90;84.30;;;;;;4999721;28;20052;-52
2022/07/21 13:10:15;;;;;;;0.47;0.47;;;28.90;84.20;;;;;;5035781;28;20055;-52
2022/07/21 13:12:43;;;;;;;1.65;0.75;;;29.00;84.20;;;;;;4997706;28;20490;-56